PBD285 UUWW-UWKD
Flight info
| Callsign | PBD285 |
|---|---|
| Flight time | 1h 7m |
| Altitude | 31000 |
| Route | KOGOM L94 EKPIR M864 INKEB L94 UNORO T788 KOROM |
| Aircraft | B738/M-SDE2E3FGHIRWXY/LB1 |
Departure
| Time | 2026-05-07 16:38 |
|---|---|
| Airport | Vnukovo International Airport (UUWW) |
Arrival
| Time | 2026-05-07 17:45 |
|---|---|
| Airport | Kazan International Airport (UWKD) |
| Time | Latitude | Longitude | Altitude | Speed | Heading |
|---|---|---|---|---|---|
| 2026-05-07 16:19 | 55.60007 | 37.28190 | 679 ft | 0 kts | 355° |
| 2026-05-07 16:33 | 55.60026 | 37.28188 | 675 ft | 5 kts | 356° |
| 2026-05-07 16:33 | 55.60063 | 37.28198 | 676 ft | 6 kts | 30° |
| 2026-05-07 16:33 | 55.60081 | 37.28289 | 678 ft | 9 kts | 82° |
| 2026-05-07 16:33 | 55.60090 | 37.28403 | 678 ft | 9 kts | 75° |
| 2026-05-07 16:34 | 55.60126 | 37.28494 | 678 ft | 9 kts | 47° |
| 2026-05-07 16:34 | 55.60169 | 37.28575 | 678 ft | 9 kts | 46° |
| 2026-05-07 16:34 | 55.60209 | 37.28657 | 678 ft | 9 kts | 67° |
| 2026-05-07 16:34 | 55.60184 | 37.28753 | 678 ft | 9 kts | 132° |
| 2026-05-07 16:35 | 55.60141 | 37.28830 | 678 ft | 9 kts | 139° |
| 2026-05-07 16:35 | 55.60087 | 37.28879 | 678 ft | 9 kts | 164° |
| 2026-05-07 16:35 | 55.60030 | 37.28905 | 681 ft | 8 kts | 167° |
| 2026-05-07 16:35 | 55.59973 | 37.28928 | 682 ft | 8 kts | 166° |
| 2026-05-07 16:36 | 55.59918 | 37.28952 | 682 ft | 8 kts | 166° |
| 2026-05-07 16:36 | 55.59865 | 37.28975 | 681 ft | 8 kts | 166° |
| 2026-05-07 16:36 | 55.59815 | 37.28999 | 691 ft | 6 kts | 163° |
| 2026-05-07 16:36 | 55.59793 | 37.28981 | 691 ft | 0 kts | 245° |
| 2026-05-07 16:37 | 55.59791 | 37.28972 | 691 ft | 5 kts | 246° |
| 2026-05-07 16:37 | 55.59699 | 37.28567 | 685 ft | 71 kts | 248° |
| 2026-05-07 16:37 | 55.59434 | 37.27391 | 674 ft | 133 kts | 248° |
| 2026-05-07 16:37 | 55.59033 | 37.25604 | 771 ft | 173 kts | 249° |
| 2026-05-07 16:38 | 55.58569 | 37.23562 | 1358 ft | 182 kts | 246° |
| 2026-05-07 16:38 | 55.57819 | 37.21891 | 2312 ft | 177 kts | 217° |
| 2026-05-07 16:38 | 55.56770 | 37.20650 | 2983 ft | 185 kts | 230° |
| 2026-05-07 16:38 | 55.56147 | 37.18750 | 3879 ft | 175 kts | 244° |
| 2026-05-07 16:39 | 55.55492 | 37.16809 | 4338 ft | 196 kts | 240° |
| 2026-05-07 16:39 | 55.54907 | 37.14494 | 4527 ft | 217 kts | 261° |
| 2026-05-07 16:39 | 55.54762 | 37.11796 | 5063 ft | 224 kts | 268° |
| 2026-05-07 16:39 | 55.54761 | 37.09050 | 5892 ft | 222 kts | 269° |
| 2026-05-07 16:40 | 55.54980 | 37.06363 | 6574 ft | 225 kts | 289° |
| 2026-05-07 16:40 | 55.55914 | 37.04124 | 7112 ft | 235 kts | 313° |
| 2026-05-07 16:40 | 55.57436 | 37.02733 | 7616 ft | 261 kts | 342° |
| 2026-05-07 16:40 | 55.59291 | 37.02476 | 8313 ft | 272 kts | 354° |
| 2026-05-07 16:41 | 55.61202 | 37.02638 | 9061 ft | 281 kts | 7° |
| 2026-05-07 16:41 | 55.62970 | 37.04182 | 9814 ft | 294 kts | 39° |
| 2026-05-07 16:41 | 55.64170 | 37.07134 | 10250 ft | 312 kts | 71° |
| 2026-05-07 16:41 | 55.64455 | 37.11048 | 10715 ft | 320 kts | 94° |
| 2026-05-07 16:42 | 55.64376 | 37.15022 | 11387 ft | 326 kts | 95° |
| 2026-05-07 16:42 | 55.64305 | 37.19047 | 12152 ft | 328 kts | 97° |
| 2026-05-07 16:42 | 55.63850 | 37.22957 | 12926 ft | 323 kts | 113° |
| 2026-05-07 16:42 | 55.63103 | 37.26708 | 13778 ft | 325 kts | 113° |
| 2026-05-07 16:43 | 55.62367 | 37.30531 | 14452 ft | 331 kts | 112° |
| 2026-05-07 16:43 | 55.61642 | 37.34417 | 15174 ft | 335 kts | 112° |
| 2026-05-07 16:43 | 55.60918 | 37.38354 | 15939 ft | 338 kts | 112° |
| 2026-05-07 16:43 | 55.60198 | 37.42284 | 16674 ft | 341 kts | 111° |
| 2026-05-07 16:44 | 55.59456 | 37.46337 | 17422 ft | 345 kts | 111° |
| 2026-05-07 16:44 | 55.58712 | 37.50388 | 18152 ft | 348 kts | 111° |
| 2026-05-07 16:44 | 55.57957 | 37.54480 | 18767 ft | 352 kts | 111° |
| 2026-05-07 16:44 | 55.57281 | 37.58667 | 19356 ft | 360 kts | 100° |
| 2026-05-07 16:45 | 55.57413 | 37.63049 | 19941 ft | 367 kts | 76° |
| 2026-05-07 16:45 | 55.58426 | 37.67191 | 20581 ft | 369 kts | 59° |
| 2026-05-07 16:45 | 55.59751 | 37.71102 | 21207 ft | 373 kts | 57° |
| 2026-05-07 16:45 | 55.61112 | 37.75048 | 21786 ft | 378 kts | 58° |
| 2026-05-07 16:46 | 55.62463 | 37.79065 | 22372 ft | 382 kts | 58° |
| 2026-05-07 16:46 | 55.63792 | 37.83154 | 22974 ft | 386 kts | 63° |
| 2026-05-07 16:46 | 55.64550 | 37.87704 | 23500 ft | 390 kts | 86° |
| 2026-05-07 16:46 | 55.64390 | 37.92464 | 24004 ft | 388 kts | 104° |
| 2026-05-07 16:47 | 55.63786 | 37.97112 | 24609 ft | 387 kts | 105° |
| 2026-05-07 16:47 | 55.63141 | 38.01744 | 25114 ft | 390 kts | 105° |
| 2026-05-07 16:47 | 55.62507 | 38.06444 | 25574 ft | 394 kts | 105° |
| 2026-05-07 16:47 | 55.61890 | 38.11176 | 26054 ft | 397 kts | 104° |
| 2026-05-07 16:48 | 55.61276 | 38.15959 | 26525 ft | 400 kts | 104° |
| 2026-05-07 16:48 | 55.60654 | 38.20850 | 26610 ft | 415 kts | 104° |
| 2026-05-07 16:48 | 55.60013 | 38.25897 | 26743 ft | 427 kts | 104° |
| 2026-05-07 16:48 | 55.59356 | 38.31067 | 27051 ft | 433 kts | 104° |
| 2026-05-07 16:49 | 55.58694 | 38.36237 | 27532 ft | 435 kts | 104° |
| 2026-05-07 16:49 | 55.58125 | 38.41521 | 28016 ft | 437 kts | 93° |
| 2026-05-07 16:49 | 55.58399 | 38.46878 | 28431 ft | 438 kts | 74° |
| 2026-05-07 16:49 | 55.59541 | 38.51841 | 28864 ft | 437 kts | 58° |
| 2026-05-07 16:50 | 55.61120 | 38.56437 | 29321 ft | 438 kts | 56° |
| 2026-05-07 16:50 | 55.62720 | 38.61028 | 29820 ft | 438 kts | 56° |
| 2026-05-07 16:50 | 55.64294 | 38.65648 | 30247 ft | 439 kts | 57° |
| 2026-05-07 16:50 | 55.65843 | 38.70311 | 30574 ft | 442 kts | 57° |
| 2026-05-07 16:51 | 55.67389 | 38.75015 | 30814 ft | 446 kts | 57° |
| 2026-05-07 16:51 | 55.70566 | 38.84713 | 30868 ft | 461 kts | 57° |
| 2026-05-07 16:52 | 55.73873 | 38.94497 | 30851 ft | 469 kts | 50° |
| 2026-05-07 16:52 | 55.78344 | 39.02885 | 30857 ft | 466 kts | 41° |
| 2026-05-07 16:53 | 55.82887 | 39.11151 | 30856 ft | 467 kts | 44° |
| 2026-05-07 16:53 | 55.86644 | 39.20558 | 30891 ft | 471 kts | 62° |
| 2026-05-07 16:54 | 55.89465 | 39.31111 | 30864 ft | 471 kts | 62° |
| 2026-05-07 16:54 | 55.92328 | 39.41609 | 30863 ft | 470 kts | 62° |
| 2026-05-07 16:55 | 55.95227 | 39.52059 | 30866 ft | 469 kts | 62° |
| 2026-05-07 16:55 | 55.98121 | 39.62506 | 30877 ft | 469 kts | 62° |
| 2026-05-07 16:56 | 56.01040 | 39.72911 | 30867 ft | 469 kts | 62° |
| 2026-05-07 16:56 | 56.03207 | 39.89971 | 30882 ft | 474 kts | 88° |
| 2026-05-07 16:57 | 56.03294 | 40.01707 | 30868 ft | 476 kts | 89° |
| 2026-05-07 16:57 | 56.03381 | 40.13533 | 30873 ft | 476 kts | 88° |
| 2026-05-07 16:58 | 56.03511 | 40.25433 | 30874 ft | 475 kts | 88° |
| 2026-05-07 16:58 | 56.03647 | 40.37229 | 30886 ft | 474 kts | 88° |
| 2026-05-07 16:59 | 56.03771 | 40.48937 | 30877 ft | 474 kts | 88° |
| 2026-05-07 16:59 | 56.03881 | 40.60730 | 30876 ft | 473 kts | 88° |
| 2026-05-07 17:00 | 56.03982 | 40.72500 | 30879 ft | 473 kts | 88° |
| 2026-05-07 17:00 | 56.04065 | 40.84256 | 30882 ft | 472 kts | 88° |
| 2026-05-07 17:01 | 56.04132 | 40.95969 | 30868 ft | 470 kts | 88° |
| 2026-05-07 17:01 | 56.04190 | 41.07643 | 30871 ft | 468 kts | 88° |
| 2026-05-07 17:02 | 56.04237 | 41.19283 | 30873 ft | 467 kts | 88° |
| 2026-05-07 17:02 | 56.04274 | 41.30883 | 30870 ft | 466 kts | 89° |
| 2026-05-07 17:03 | 56.04300 | 41.42487 | 30870 ft | 467 kts | 89° |
| 2026-05-07 17:03 | 56.04315 | 41.54104 | 30869 ft | 468 kts | 89° |
| 2026-05-07 17:04 | 56.04319 | 41.65731 | 30871 ft | 468 kts | 89° |
| 2026-05-07 17:04 | 56.04312 | 41.77384 | 30871 ft | 468 kts | 89° |
| 2026-05-07 17:05 | 56.04294 | 41.89028 | 30868 ft | 469 kts | 89° |
| 2026-05-07 17:05 | 56.04266 | 42.00690 | 30865 ft | 469 kts | 89° |
| 2026-05-07 17:06 | 56.04226 | 42.12357 | 30874 ft | 469 kts | 89° |
| 2026-05-07 17:06 | 56.04175 | 42.24012 | 30862 ft | 469 kts | 90° |
| 2026-05-07 17:07 | 56.04114 | 42.35687 | 30855 ft | 469 kts | 90° |
| 2026-05-07 17:07 | 56.04043 | 42.47252 | 30862 ft | 468 kts | 90° |
| 2026-05-07 17:08 | 56.03952 | 42.58889 | 30862 ft | 467 kts | 90° |
| 2026-05-07 17:08 | 56.03816 | 42.70476 | 30863 ft | 467 kts | 91° |
| 2026-05-07 17:09 | 56.03666 | 42.82115 | 30865 ft | 467 kts | 91° |
| 2026-05-07 17:09 | 56.03511 | 42.93706 | 30875 ft | 466 kts | 91° |
| 2026-05-07 17:10 | 56.03375 | 43.03427 | 30865 ft | 467 kts | 91° |
| 2026-05-07 17:10 | 56.03202 | 43.15026 | 30868 ft | 467 kts | 91° |
| 2026-05-07 17:11 | 56.03020 | 43.26635 | 30868 ft | 467 kts | 91° |
| 2026-05-07 17:11 | 56.03061 | 43.38241 | 30871 ft | 467 kts | 83° |
| 2026-05-07 17:12 | 56.03867 | 43.49769 | 30873 ft | 467 kts | 81° |
| 2026-05-07 17:12 | 56.04735 | 43.61295 | 30877 ft | 468 kts | 82° |
| 2026-05-07 17:13 | 56.05534 | 43.72758 | 30890 ft | 468 kts | 82° |
| 2026-05-07 17:13 | 56.06295 | 43.84342 | 30877 ft | 469 kts | 82° |
| 2026-05-07 17:14 | 56.07040 | 43.95940 | 30879 ft | 469 kts | 83° |
| 2026-05-07 17:14 | 56.07776 | 44.07542 | 30873 ft | 469 kts | 83° |
| 2026-05-07 17:15 | 56.08501 | 44.19134 | 30876 ft | 469 kts | 83° |
| 2026-05-07 17:15 | 56.09217 | 44.30735 | 30882 ft | 468 kts | 83° |
| 2026-05-07 17:16 | 56.09920 | 44.42327 | 30894 ft | 468 kts | 83° |
| 2026-05-07 17:16 | 56.10614 | 44.53910 | 30883 ft | 468 kts | 83° |
| 2026-05-07 17:17 | 56.11282 | 44.65522 | 30889 ft | 468 kts | 85° |
| 2026-05-07 17:17 | 56.11201 | 44.77172 | 30896 ft | 468 kts | 93° |
| 2026-05-07 17:18 | 56.10859 | 44.88840 | 30892 ft | 468 kts | 92° |
| 2026-05-07 17:18 | 56.10606 | 45.00475 | 30905 ft | 468 kts | 92° |
| 2026-05-07 17:19 | 56.10351 | 45.12121 | 30905 ft | 468 kts | 92° |
| 2026-05-07 17:19 | 56.10070 | 45.23699 | 30904 ft | 468 kts | 92° |
| 2026-05-07 17:20 | 56.09780 | 45.35343 | 30911 ft | 468 kts | 92° |
| 2026-05-07 17:20 | 56.09481 | 45.46982 | 30914 ft | 468 kts | 92° |
| 2026-05-07 17:21 | 56.09172 | 45.58617 | 30918 ft | 468 kts | 92° |
| 2026-05-07 17:21 | 56.08852 | 45.70248 | 30925 ft | 468 kts | 92° |
| 2026-05-07 17:22 | 56.08521 | 45.81879 | 30923 ft | 467 kts | 93° |
| 2026-05-07 17:22 | 56.08177 | 45.93586 | 30655 ft | 470 kts | 93° |
| 2026-05-07 17:23 | 56.08003 | 45.99346 | 30212 ft | 466 kts | 93° |
| 2026-05-07 17:23 | 56.07826 | 46.05118 | 29669 ft | 462 kts | 93° |
| 2026-05-07 17:23 | 56.07649 | 46.10826 | 29133 ft | 457 kts | 93° |
| 2026-05-07 17:23 | 56.07470 | 46.16493 | 28963 ft | 457 kts | 93° |
| 2026-05-07 17:24 | 56.07290 | 46.22115 | 28921 ft | 446 kts | 93° |
| 2026-05-07 17:24 | 56.07114 | 46.27562 | 28922 ft | 430 kts | 93° |
| 2026-05-07 17:24 | 56.06942 | 46.32811 | 28925 ft | 416 kts | 93° |
| 2026-05-07 17:24 | 56.06774 | 46.37887 | 28924 ft | 401 kts | 93° |
| 2026-05-07 17:25 | 56.06609 | 46.42789 | 28903 ft | 388 kts | 93° |
| 2026-05-07 17:25 | 56.06447 | 46.47553 | 28813 ft | 378 kts | 93° |
| 2026-05-07 17:25 | 56.06135 | 46.52187 | 28544 ft | 373 kts | 103° |
| 2026-05-07 17:25 | 56.05380 | 46.56608 | 28114 ft | 372 kts | 111° |
| 2026-05-07 17:26 | 56.04454 | 46.60939 | 27588 ft | 375 kts | 112° |
| 2026-05-07 17:26 | 56.03491 | 46.65311 | 26837 ft | 383 kts | 112° |
| 2026-05-07 17:26 | 56.02485 | 46.69875 | 25585 ft | 405 kts | 112° |
| 2026-05-07 17:26 | 56.01434 | 46.74680 | 24473 ft | 424 kts | 112° |
| 2026-05-07 17:27 | 56.00364 | 46.79616 | 23823 ft | 427 kts | 112° |
| 2026-05-07 17:27 | 55.99303 | 46.84538 | 23398 ft | 422 kts | 112° |
| 2026-05-07 17:27 | 55.98256 | 46.89401 | 22956 ft | 416 kts | 112° |
| 2026-05-07 17:27 | 55.97222 | 46.94201 | 22456 ft | 413 kts | 112° |
| 2026-05-07 17:28 | 55.96207 | 46.98894 | 21989 ft | 409 kts | 112° |
| 2026-05-07 17:28 | 55.95200 | 47.03607 | 21526 ft | 405 kts | 109° |
| 2026-05-07 17:28 | 55.94490 | 47.08466 | 21019 ft | 403 kts | 102° |
| 2026-05-07 17:28 | 55.93943 | 47.13340 | 20547 ft | 398 kts | 101° |
| 2026-05-07 17:29 | 55.93431 | 47.18138 | 19849 ft | 392 kts | 101° |
| 2026-05-07 17:29 | 55.92919 | 47.22917 | 19040 ft | 391 kts | 101° |
| 2026-05-07 17:29 | 55.92400 | 47.27663 | 18315 ft | 388 kts | 101° |
| 2026-05-07 17:29 | 55.91876 | 47.32351 | 17562 ft | 383 kts | 102° |
| 2026-05-07 17:30 | 55.91350 | 47.36978 | 16817 ft | 379 kts | 102° |
| 2026-05-07 17:30 | 55.90823 | 47.41553 | 16071 ft | 375 kts | 102° |
| 2026-05-07 17:30 | 55.90296 | 47.46094 | 15340 ft | 372 kts | 102° |
| 2026-05-07 17:30 | 55.89771 | 47.50585 | 14636 ft | 368 kts | 102° |
| 2026-05-07 17:31 | 55.89249 | 47.55033 | 13952 ft | 365 kts | 102° |
| 2026-05-07 17:31 | 55.88730 | 47.59434 | 13238 ft | 361 kts | 101° |
| 2026-05-07 17:31 | 55.88214 | 47.63797 | 12684 ft | 359 kts | 101° |
| 2026-05-07 17:31 | 55.87700 | 47.68129 | 12322 ft | 355 kts | 101° |
| 2026-05-07 17:32 | 55.87193 | 47.72394 | 11934 ft | 351 kts | 101° |
| 2026-05-07 17:32 | 55.86686 | 47.76639 | 11497 ft | 349 kts | 101° |
| 2026-05-07 17:32 | 55.86181 | 47.80862 | 11069 ft | 348 kts | 101° |
| 2026-05-07 17:32 | 55.85678 | 47.85050 | 10695 ft | 345 kts | 101° |
| 2026-05-07 17:33 | 55.85181 | 47.89174 | 10498 ft | 336 kts | 101° |
| 2026-05-07 17:33 | 55.84703 | 47.93129 | 10344 ft | 327 kts | 101° |
| 2026-05-07 17:33 | 55.84231 | 47.97018 | 10203 ft | 318 kts | 101° |
| 2026-05-07 17:33 | 55.83770 | 48.00813 | 10069 ft | 309 kts | 101° |
| 2026-05-07 17:34 | 55.83321 | 48.04497 | 9942 ft | 301 kts | 101° |
| 2026-05-07 17:34 | 55.82882 | 48.08086 | 9655 ft | 299 kts | 101° |
| 2026-05-07 17:34 | 55.82440 | 48.11706 | 9349 ft | 298 kts | 101° |
| 2026-05-07 17:34 | 55.82001 | 48.15293 | 9034 ft | 296 kts | 101° |
| 2026-05-07 17:35 | 55.81562 | 48.18864 | 8729 ft | 294 kts | 101° |
| 2026-05-07 17:35 | 55.81126 | 48.22400 | 8448 ft | 293 kts | 101° |
| 2026-05-07 17:35 | 55.80689 | 48.25931 | 8164 ft | 291 kts | 101° |
| 2026-05-07 17:35 | 55.80255 | 48.29429 | 7887 ft | 289 kts | 101° |
| 2026-05-07 17:36 | 55.79827 | 48.32875 | 7596 ft | 287 kts | 101° |
| 2026-05-07 17:36 | 55.79391 | 48.36370 | 7319 ft | 286 kts | 101° |
| 2026-05-07 17:36 | 55.78965 | 48.39780 | 7045 ft | 284 kts | 101° |
| 2026-05-07 17:36 | 55.78533 | 48.43231 | 6764 ft | 283 kts | 101° |
| 2026-05-07 17:37 | 55.78106 | 48.46628 | 6495 ft | 282 kts | 101° |
| 2026-05-07 17:37 | 55.77679 | 48.50023 | 6208 ft | 281 kts | 101° |
| 2026-05-07 17:37 | 55.77254 | 48.53395 | 5920 ft | 279 kts | 101° |
| 2026-05-07 17:37 | 55.76830 | 48.56754 | 5640 ft | 278 kts | 101° |
| 2026-05-07 17:38 | 55.76406 | 48.60101 | 5353 ft | 276 kts | 102° |
| 2026-05-07 17:38 | 55.75983 | 48.63424 | 5094 ft | 275 kts | 102° |
| 2026-05-07 17:38 | 55.75565 | 48.66713 | 4831 ft | 273 kts | 102° |
| 2026-05-07 17:38 | 55.75146 | 48.69995 | 4558 ft | 271 kts | 102° |
| 2026-05-07 17:39 | 55.74730 | 48.73251 | 4299 ft | 269 kts | 103° |
| 2026-05-07 17:39 | 55.74317 | 48.76470 | 4047 ft | 267 kts | 103° |
| 2026-05-07 17:39 | 55.73908 | 48.79659 | 3790 ft | 265 kts | 104° |
| 2026-05-07 17:39 | 55.73499 | 48.82837 | 3526 ft | 263 kts | 104° |
| 2026-05-07 17:40 | 55.73092 | 48.85991 | 3269 ft | 261 kts | 104° |
| 2026-05-07 17:40 | 55.72693 | 48.89078 | 3112 ft | 255 kts | 103° |
| 2026-05-07 17:40 | 55.72431 | 48.91105 | 3029 ft | 250 kts | 103° |
| 2026-05-07 17:40 | 55.71919 | 48.95041 | 2871 ft | 238 kts | 103° |
| 2026-05-07 17:41 | 55.71556 | 48.97827 | 2739 ft | 226 kts | 103° |
| 2026-05-07 17:41 | 55.71181 | 49.00483 | 2699 ft | 217 kts | 111° |
| 2026-05-07 17:41 | 55.70466 | 49.02757 | 2703 ft | 209 kts | 124° |
| 2026-05-07 17:41 | 55.69634 | 49.04840 | 2715 ft | 203 kts | 125° |
| 2026-05-07 17:42 | 55.68840 | 49.06832 | 2702 ft | 194 kts | 125° |
| 2026-05-07 17:42 | 55.68068 | 49.08795 | 2554 ft | 195 kts | 125° |
| 2026-05-07 17:42 | 55.67301 | 49.10757 | 2338 ft | 193 kts | 125° |
| 2026-05-07 17:42 | 55.66550 | 49.12679 | 2079 ft | 185 kts | 124° |
| 2026-05-07 17:43 | 55.65837 | 49.14505 | 1836 ft | 174 kts | 124° |
| 2026-05-07 17:43 | 55.65173 | 49.16203 | 1607 ft | 163 kts | 124° |
| 2026-05-07 17:43 | 55.64558 | 49.17781 | 1418 ft | 152 kts | 124° |
| 2026-05-07 17:43 | 55.63960 | 49.19312 | 1226 ft | 150 kts | 124° |
| 2026-05-07 17:44 | 55.63371 | 49.20823 | 1032 ft | 149 kts | 124° |
| 2026-05-07 17:44 | 55.62787 | 49.22320 | 839 ft | 150 kts | 124° |
| 2026-05-07 17:44 | 55.62199 | 49.23836 | 643 ft | 150 kts | 124° |
| 2026-05-07 17:44 | 55.61608 | 49.25348 | 434 ft | 149 kts | 124° |
| 2026-05-07 17:45 | 55.61064 | 49.26748 | 415 ft | 123 kts | 123° |
| 2026-05-07 17:45 | 55.60648 | 49.27815 | 418 ft | 88 kts | 124° |
| 2026-05-07 17:45 | 55.60372 | 49.28528 | 416 ft | 53 kts | 124° |
| 2026-05-07 17:45 | 55.60174 | 49.29035 | 416 ft | 47 kts | 124° |
| 2026-05-07 17:46 | 55.59996 | 49.29496 | 410 ft | 43 kts | 124° |
| 2026-05-07 17:46 | 55.59852 | 49.29867 | 412 ft | 25 kts | 124° |
| 2026-05-07 17:46 | 55.59827 | 49.29998 | 409 ft | 10 kts | 66° |
| 2026-05-07 17:46 | 55.59884 | 49.30080 | 415 ft | 10 kts | 35° |
| 2026-05-07 17:47 | 55.59908 | 49.30106 | 417 ft | 0 kts | 25° |
| 2026-05-07 17:48 | 55.59912 | 49.30109 | 413 ft | 3 kts | 24° |
| 2026-05-07 17:48 | 55.59958 | 49.30125 | 412 ft | 11 kts | 359° |
| 2026-05-07 17:49 | 55.60037 | 49.30074 | 406 ft | 13 kts | 335° |
| 2026-05-07 17:49 | 55.60117 | 49.30007 | 415 ft | 13 kts | 335° |
| 2026-05-07 17:49 | 55.60176 | 49.29957 | 415 ft | 9 kts | 334° |
| 2026-05-07 17:49 | 55.60232 | 49.29909 | 415 ft | 9 kts | 334° |
| 2026-05-07 17:50 | 55.60290 | 49.29880 | 410 ft | 9 kts | 356° |
| 2026-05-07 17:50 | 55.60353 | 49.29894 | 411 ft | 9 kts | 16° |
| 2026-05-07 17:50 | 55.60409 | 49.29945 | 415 ft | 9 kts | 33° |
| 2026-05-07 17:50 | 55.60459 | 49.30005 | 415 ft | 9 kts | 35° |
| 2026-05-07 17:51 | 55.60507 | 49.30064 | 415 ft | 8 kts | 34° |
| 2026-05-07 17:51 | 55.60559 | 49.30095 | 413 ft | 8 kts | 349° |
| 2026-05-07 17:51 | 55.60600 | 49.30029 | 413 ft | 8 kts | 304° |
| 2026-05-07 17:51 | 55.60631 | 49.29950 | 410 ft | 8 kts | 304° |
| 2026-05-07 17:52 | 55.60669 | 49.29860 | 413 ft | 7 kts | 319° |
| 2026-05-07 17:52 | 55.60687 | 49.29849 | 415 ft | 3 kts | 355° |
| 2026-05-07 17:52 | 55.60709 | 49.29859 | 412 ft | 4 kts | 25° |
| 2026-05-07 17:52 | 55.60731 | 49.29883 | 415 ft | 3 kts | 32° |
| 2026-05-07 17:53 | 55.60734 | 49.29887 | 415 ft | 0 kts | 34° |